createdAt,value
2019-02-02T00:00:48.162Z,955.4
2019-02-02T00:01:52.314Z,955.4
2019-02-02T00:02:53.558Z,955.4
2019-02-02T00:03:54.818Z,955.4
2019-02-02T00:05:01.144Z,955.4
2019-02-02T00:06:02.425Z,955.4
2019-02-02T00:07:04.018Z,955.5
2019-02-02T00:08:05.314Z,955.5
2019-02-02T00:09:06.665Z,955.5
2019-02-02T00:10:08.220Z,955.6
2019-02-02T00:11:09.490Z,955.5
2019-02-02T00:12:10.745Z,955.6
2019-02-02T00:13:12.636Z,955.6
2019-02-02T00:14:13.872Z,955.6
2019-02-02T00:15:15.316Z,955.6
2019-02-02T00:16:16.569Z,955.7
2019-02-02T00:17:17.818Z,955.6
2019-02-02T00:18:19.338Z,955.7
2019-02-02T00:19:21.366Z,955.7
2019-02-02T00:20:22.636Z,955.6
2019-02-02T00:21:23.920Z,955.6
2019-02-02T00:22:25.356Z,955.7
2019-02-02T00:23:26.632Z,955.7
2019-02-02T00:24:30.658Z,955.7
2019-02-02T00:25:31.932Z,955.7
2019-02-02T00:26:33.311Z,955.7
2019-02-02T00:27:42.160Z,955.7
2019-02-02T00:28:43.398Z,955.7
2019-02-02T00:29:44.660Z,955.6
2019-02-02T00:30:46.072Z,955.6
2019-02-02T00:31:49.334Z,955.6
2019-02-02T00:32:50.570Z,955.6
2019-02-02T00:33:51.864Z,955.6
2019-02-02T00:34:53.175Z,955.6
2019-02-02T00:35:54.490Z,955.6
2019-02-02T00:36:55.735Z,955.6
2019-02-02T00:37:59.690Z,955.6
2019-02-02T00:39:00.939Z,955.6
2019-02-02T00:40:02.229Z,955.6
2019-02-02T00:41:03.783Z,955.6
2019-02-02T00:42:05.051Z,955.6
2019-02-02T00:43:06.579Z,955.6
2019-02-02T00:44:07.852Z,955.6
2019-02-02T00:45:09.093Z,955.6
2019-02-02T00:46:10.417Z,955.6
2019-02-02T00:47:12.241Z,955.6
2019-02-02T00:48:13.526Z,955.7
2019-02-02T00:49:14.969Z,955.6
2019-02-02T00:50:16.291Z,955.7
2019-02-02T00:51:17.799Z,955.7
2019-02-02T00:52:19.091Z,955.7
2019-02-02T00:53:20.326Z,955.6
2019-02-02T00:54:21.621Z,955.6
2019-02-02T00:55:22.891Z,955.5
2019-02-02T00:56:24.295Z,955.5
2019-02-02T00:57:25.579Z,955.5
2019-02-02T00:58:26.834Z,955.5
2019-02-02T00:59:28.087Z,955.6
2019-02-02T01:00:32.697Z,955.6
2019-02-02T01:01:34.031Z,955.6
2019-02-02T01:02:35.282Z,955.6
2019-02-02T01:03:36.541Z,955.6
2019-02-02T01:04:37.831Z,955.6
2019-02-02T01:05:39.109Z,955.6
2019-02-02T01:06:40.793Z,955.7
2019-02-02T01:07:42.235Z,955.6
2019-02-02T01:08:43.461Z,955.6
2019-02-02T01:09:46.951Z,955.6
2019-02-02T01:10:48.210Z,955.7
2019-02-02T01:11:49.473Z,955.7
2019-02-02T01:12:50.719Z,955.7
2019-02-02T01:13:51.997Z,955.7
2019-02-02T01:14:53.241Z,955.7
2019-02-02T01:15:54.479Z,955.6
2019-02-02T01:16:55.922Z,955.7
2019-02-02T01:17:57.159Z,955.6
2019-02-02T01:18:58.398Z,955.7
2019-02-02T01:19:59.653Z,955.7
2019-02-02T01:21:00.983Z,955.7
2019-02-02T01:22:02.397Z,955.7
2019-02-02T01:23:03.631Z,955.7
2019-02-02T01:24:04.951Z,955.7
2019-02-02T01:25:06.207Z,955.7
2019-02-02T01:26:07.481Z,955.8
2019-02-02T01:27:08.966Z,955.8
2019-02-02T01:28:10.219Z,955.8
2019-02-02T01:29:11.465Z,955.7
2019-02-02T01:30:12.971Z,955.7
2019-02-02T01:31:14.211Z,955.8
2019-02-02T01:32:15.531Z,955.7
2019-02-02T01:33:16.765Z,955.7
2019-02-02T01:34:18.267Z,955.7
2019-02-02T01:35:19.528Z,955.3
2019-02-02T01:36:20.809Z,955.7
2019-02-02T01:37:22.114Z,955.7
2019-02-02T01:38:23.377Z,955.7
2019-02-02T01:39:24.651Z,955.7
2019-02-02T01:40:25.914Z,955.7
2019-02-02T01:41:27.153Z,955.7
2019-02-02T01:42:28.449Z,955.8
2019-02-02T01:43:30.041Z,955.8
2019-02-02T01:44:31.330Z,955.8
2019-02-02T01:45:32.571Z,955.9
2019-02-02T01:46:33.840Z,955.8
2019-02-02T01:47:35.384Z,955.8
2019-02-02T01:48:36.621Z,955.9
2019-02-02T01:49:37.865Z,955.8
2019-02-02T01:50:39.122Z,955.8
2019-02-02T01:51:40.360Z,955.8
2019-02-02T01:52:41.663Z,955.8
2019-02-02T01:53:42.916Z,955.9
2019-02-02T01:54:44.157Z,955.8
2019-02-02T01:55:45.462Z,955.7
2019-02-02T01:56:46.743Z,955.9
2019-02-02T01:57:48.025Z,955.9
2019-02-02T01:58:49.290Z,955.9
2019-02-02T01:59:51.824Z,955.7
2019-02-02T02:00:53.790Z,955.8
2019-02-02T02:01:55.060Z,955.8
2019-02-02T02:02:59.355Z,955.8
2019-02-02T02:04:00.612Z,955.8
2019-02-02T02:05:01.893Z,955.7
2019-02-02T02:06:03.564Z,955.8
2019-02-02T02:07:04.824Z,955.8
2019-02-02T02:08:06.084Z,955.8
2019-02-02T02:09:07.490Z,955.8
2019-02-02T02:10:11.208Z,955.8
2019-02-02T02:11:12.446Z,955.7
2019-02-02T02:12:13.718Z,955.7
2019-02-02T02:13:15.020Z,955.7
2019-02-02T02:14:16.292Z,955.7
2019-02-02T02:15:17.578Z,955.7
2019-02-02T02:16:18.817Z,955.7
2019-02-02T02:17:20.094Z,955.6
2019-02-02T02:18:21.392Z,955.6
2019-02-02T02:19:22.626Z,955.6
2019-02-02T02:20:25.124Z,955.6
2019-02-02T02:21:26.416Z,955.6
2019-02-02T02:22:41.856Z,955.6
2019-02-02T02:23:43.382Z,955.7
2019-02-02T02:24:44.640Z,955.7
2019-02-02T02:25:45.906Z,955.7
2019-02-02T02:26:47.336Z,955.8
2019-02-02T02:27:48.580Z,955.7
2019-02-02T02:28:49.888Z,955.7
2019-02-02T02:29:51.150Z,955.7
2019-02-02T02:30:52.475Z,955.7
2019-02-02T02:31:53.722Z,955.7
2019-02-02T02:32:54.992Z,955.6
2019-02-02T02:33:56.285Z,955.6
2019-02-02T02:34:57.514Z,955.7
2019-02-02T02:35:58.797Z,955.7
2019-02-02T02:37:00.064Z,955.8
2019-02-02T02:38:01.322Z,955.8
2019-02-02T02:39:02.645Z,955.8
2019-02-02T02:40:03.896Z,955.7
2019-02-02T02:41:05.174Z,955.7
2019-02-02T02:42:06.424Z,955.7
2019-02-02T02:43:07.673Z,955.6
2019-02-02T02:44:09.748Z,955.7
2019-02-02T02:45:11.028Z,955.7
2019-02-02T02:46:12.368Z,955.6
2019-02-02T02:47:16.269Z,955.6
2019-02-02T02:48:18.630Z,955.6
2019-02-02T02:49:19.943Z,955.6
2019-02-02T02:50:21.212Z,955.6
2019-02-02T02:51:22.484Z,955.7
2019-02-02T02:52:23.755Z,955.7
2019-02-02T02:53:25.029Z,955.6
2019-02-02T02:54:26.324Z,955.6
2019-02-02T02:55:27.587Z,955.6
2019-02-02T02:56:29.066Z,955.6
2019-02-02T02:57:30.339Z,955.7
2019-02-02T02:58:42.142Z,955.7
2019-02-02T02:59:43.642Z,955.7
2019-02-02T03:00:44.902Z,955.8
2019-02-02T03:01:46.363Z,955.7
2019-02-02T03:02:47.623Z,955.7
2019-02-02T03:03:48.890Z,955.7
2019-02-02T03:04:50.190Z,955.4
2019-02-02T03:05:51.594Z,955.7
2019-02-02T03:06:52.870Z,955.8
2019-02-02T03:07:54.141Z,955.8
2019-02-02T03:08:55.390Z,955.8
2019-02-02T03:09:56.760Z,955.7
2019-02-02T03:10:58.029Z,955.7
2019-02-02T03:11:59.303Z,955.6
2019-02-02T03:13:00.641Z,955.5
2019-02-02T03:14:01.887Z,955.6
2019-02-02T03:15:03.353Z,955.6
2019-02-02T03:16:04.589Z,955.6
2019-02-02T03:17:05.829Z,955.6
2019-02-02T03:18:07.095Z,955.6
2019-02-02T03:19:08.351Z,955.6
2019-02-02T03:20:09.902Z,955.6
2019-02-02T03:21:11.169Z,955.6
2019-02-02T03:22:12.422Z,955.6
2019-02-02T03:23:13.645Z,955.6
2019-02-02T03:24:14.889Z,955.7
2019-02-02T03:25:16.181Z,955.7
2019-02-02T03:26:17.461Z,955.7
2019-02-02T03:27:18.699Z,955.7
2019-02-02T03:28:19.955Z,955.6
2019-02-02T03:29:21.230Z,955.8
2019-02-02T03:30:22.584Z,955.8
2019-02-02T03:31:23.862Z,955.9
2019-02-02T03:32:25.109Z,955.9
2019-02-02T03:33:26.384Z,955.9
2019-02-02T03:34:27.647Z,956
2019-02-02T03:35:28.939Z,955.9
2019-02-02T03:36:30.221Z,955.9
2019-02-02T03:37:31.449Z,955.8
2019-02-02T03:38:32.998Z,955.8
2019-02-02T03:39:34.272Z,955.8
2019-02-02T03:40:35.563Z,955.8
2019-02-02T03:41:36.826Z,955.9
2019-02-02T03:42:38.069Z,955.9
2019-02-02T03:43:39.975Z,955.9
2019-02-02T03:44:41.224Z,956
2019-02-02T03:45:42.524Z,956
2019-02-02T03:46:43.793Z,956
2019-02-02T03:47:45.325Z,955.9
2019-02-02T03:48:46.575Z,955.9
2019-02-02T03:49:47.835Z,955.8
2019-02-02T03:50:49.170Z,955.8
2019-02-02T03:51:50.446Z,955.8
2019-02-02T03:52:51.707Z,955.9
2019-02-02T03:53:52.965Z,955.9
2019-02-02T03:54:54.225Z,956
2019-02-02T03:55:55.504Z,956
2019-02-02T03:56:56.773Z,955.8
2019-02-02T03:57:58.005Z,955.8
2019-02-02T03:59:07.375Z,955.9
2019-02-02T04:00:08.640Z,955.9
2019-02-02T04:01:09.912Z,956
2019-02-02T04:02:11.193Z,956
2019-02-02T04:03:12.447Z,956
2019-02-02T04:04:13.709Z,956.1
2019-02-02T04:05:15.220Z,956
2019-02-02T04:06:16.570Z,956.1
2019-02-02T04:07:17.828Z,956.1
2019-02-02T04:08:19.088Z,956
2019-02-02T04:09:20.651Z,956
2019-02-02T04:10:21.915Z,956
2019-02-02T04:11:23.222Z,955.7
2019-02-02T04:12:24.489Z,956
2019-02-02T04:13:28.026Z,956.1
2019-02-02T04:14:29.295Z,956.1
2019-02-02T04:15:30.552Z,956
2019-02-02T04:16:36.309Z,955.9
2019-02-02T04:17:37.608Z,955.9
2019-02-02T04:18:38.861Z,956
2019-02-02T04:19:40.126Z,955.9
2019-02-02T04:20:41.459Z,956
2019-02-02T04:21:43.224Z,956
2019-02-02T04:22:44.473Z,956.1
2019-02-02T04:23:45.732Z,956.1
2019-02-02T04:24:46.966Z,956.2
2019-02-02T04:25:48.225Z,956.1
2019-02-02T04:26:49.528Z,956.1
2019-02-02T04:27:50.801Z,956.1
2019-02-02T04:28:52.059Z,956.1
2019-02-02T04:29:53.327Z,956.1
2019-02-02T04:30:54.586Z,956.1
2019-02-02T04:31:55.894Z,956
2019-02-02T04:32:57.310Z,956.2
2019-02-02T04:33:58.586Z,956.1
2019-02-02T04:34:59.828Z,956.2
2019-02-02T04:36:01.142Z,956.2
2019-02-02T04:37:02.459Z,956.1
2019-02-02T04:38:03.732Z,956.1
2019-02-02T04:39:04.992Z,956.1
2019-02-02T04:40:06.382Z,956.1
2019-02-02T04:41:07.649Z,956.1
2019-02-02T04:42:08.938Z,956.1
2019-02-02T04:43:10.200Z,956.1
2019-02-02T04:44:11.458Z,956.1
2019-02-02T04:45:12.696Z,956.2
2019-02-02T04:46:13.973Z,956.2
2019-02-02T04:47:15.250Z,956.1
2019-02-02T04:48:16.506Z,956
2019-02-02T04:49:17.746Z,956.1
2019-02-02T04:50:19.006Z,956.1
2019-02-02T04:51:20.310Z,956.1
2019-02-02T04:52:21.678Z,956
2019-02-02T04:53:22.945Z,956
2019-02-02T04:54:24.274Z,956
2019-02-02T04:55:25.842Z,956
2019-02-02T04:56:27.367Z,956
2019-02-02T04:57:28.660Z,956
2019-02-02T04:58:29.936Z,956
2019-02-02T04:59:31.194Z,956
2019-02-02T05:00:32.454Z,955.9
2019-02-02T05:01:33.702Z,955.9
2019-02-02T05:02:34.994Z,956
2019-02-02T05:03:36.259Z,956.1
2019-02-02T05:04:37.534Z,956.1
2019-02-02T05:05:38.770Z,956.2
2019-02-02T05:06:40.206Z,956.2
2019-02-02T05:07:41.541Z,956.2
2019-02-02T05:08:42.848Z,956.3
2019-02-02T05:09:44.092Z,956.3
2019-02-02T05:10:45.359Z,956.2
2019-02-02T05:11:46.613Z,956.3
2019-02-02T05:12:47.939Z,956.3
2019-02-02T05:13:49.187Z,956.3
2019-02-02T05:14:50.443Z,956.3
2019-02-02T05:15:52.024Z,956.3
2019-02-02T05:16:53.266Z,956.4
2019-02-02T05:17:54.593Z,956.4
2019-02-02T05:18:55.861Z,956.6
2019-02-02T05:19:57.122Z,956.7
2019-02-02T05:20:58.384Z,956.7
2019-02-02T05:21:59.613Z,956.7
2019-02-02T05:23:00.935Z,956.7
2019-02-02T05:24:02.223Z,956.8
2019-02-02T05:25:03.455Z,956.8
2019-02-02T05:26:04.685Z,956.8
2019-02-02T05:27:06.307Z,956.8
2019-02-02T05:28:07.737Z,956.7
2019-02-02T05:29:09.213Z,956.7
2019-02-02T05:30:10.470Z,956.6
2019-02-02T05:31:11.741Z,956.6
2019-02-02T05:32:12.993Z,956.6
2019-02-02T05:33:14.253Z,956.7
2019-02-02T05:34:15.534Z,956.7
2019-02-02T05:35:16.791Z,956.7
2019-02-02T05:36:18.070Z,956.8
2019-02-02T05:37:19.309Z,956.5
2019-02-02T05:38:20.649Z,956.5
2019-02-02T05:39:21.953Z,956.6
2019-02-02T05:40:23.301Z,956.5
2019-02-02T05:41:24.701Z,956.5
2019-02-02T05:42:25.969Z,956.5
2019-02-02T05:43:27.289Z,956.4
2019-02-02T05:44:28.545Z,956.5
2019-02-02T05:45:29.831Z,956.4
2019-02-02T05:46:31.077Z,956.3
2019-02-02T05:47:32.332Z,956.2
2019-02-02T05:48:33.639Z,956.3
2019-02-02T05:49:34.919Z,956.3
2019-02-02T05:50:36.147Z,956.3
2019-02-02T05:51:37.395Z,956.4
2019-02-02T05:52:38.693Z,956.3
2019-02-02T05:53:39.987Z,956.4
2019-02-02T05:54:41.239Z,956.4
2019-02-02T05:55:42.673Z,956.3
2019-02-02T05:56:43.941Z,956.3
2019-02-02T05:57:45.249Z,956.3
2019-02-02T05:58:46.537Z,956.4
2019-02-02T05:59:53.783Z,956.4
2019-02-02T06:00:55.046Z,956.4
2019-02-02T06:01:56.363Z,956.4
2019-02-02T06:02:57.619Z,956.4
2019-02-02T06:03:58.905Z,956.5
2019-02-02T06:05:00.171Z,956.6
2019-02-02T06:06:01.446Z,956.5
2019-02-02T06:07:02.708Z,956.6
2019-02-02T06:08:06.945Z,956.6
2019-02-02T06:09:08.297Z,956.5
2019-02-02T06:10:09.842Z,956.5
2019-02-02T06:11:11.111Z,956.4
2019-02-02T06:12:12.418Z,956.4
2019-02-02T06:13:13.688Z,956.6
2019-02-02T06:14:15.241Z,956.7
2019-02-02T06:15:16.503Z,956.7
2019-02-02T06:16:17.753Z,956.8
2019-02-02T06:17:19.023Z,956.5
2019-02-02T06:18:20.333Z,956.8
2019-02-02T06:19:21.613Z,956.7
2019-02-02T06:20:23.032Z,956.6
2019-02-02T06:21:24.270Z,956.5
2019-02-02T06:22:25.541Z,956.6
2019-02-02T06:23:27.318Z,956.7
2019-02-02T06:24:28.629Z,956.7
2019-02-02T06:25:29.896Z,956.7
2019-02-02T06:26:31.205Z,956.8
2019-02-02T06:27:32.468Z,956.8
2019-02-02T06:28:33.715Z,956.8
2019-02-02T06:29:35.013Z,956.8
2019-02-02T06:30:36.273Z,956.9
2019-02-02T06:31:38.877Z,956.8
2019-02-02T06:32:40.108Z,956.8
2019-02-02T06:33:41.358Z,956.8
2019-02-02T06:34:42.632Z,956.8
2019-02-02T06:35:43.893Z,956.8
2019-02-02T06:36:45.152Z,956.9
2019-02-02T06:37:46.421Z,956.9
2019-02-02T06:38:47.707Z,956.9
2019-02-02T06:39:49.061Z,956.9
2019-02-02T06:40:50.353Z,956.9
2019-02-02T06:41:51.620Z,956.9
2019-02-02T06:42:52.882Z,956.9
2019-02-02T06:43:54.312Z,956.9
2019-02-02T06:44:55.602Z,956.9
2019-02-02T06:45:56.996Z,956.8
2019-02-02T06:46:58.254Z,956.7
2019-02-02T06:47:59.512Z,956.6
2019-02-02T06:49:02.284Z,956.8
2019-02-02T06:50:03.589Z,956.7
2019-02-02T06:51:04.844Z,956.8
2019-02-02T06:52:08.999Z,956.9
2019-02-02T06:53:10.238Z,957
2019-02-02T06:54:11.505Z,957.1
2019-02-02T06:55:12.824Z,957.2
2019-02-02T06:56:15.357Z,957.2
2019-02-02T06:57:16.620Z,957.2
2019-02-02T06:58:17.928Z,957.2
2019-02-02T06:59:19.174Z,957.2
2019-02-02T07:00:20.521Z,957.3
2019-02-02T07:01:21.762Z,957.3
2019-02-02T07:02:23.036Z,957.3
2019-02-02T07:03:24.286Z,957.4
2019-02-02T07:04:25.519Z,957.4
2019-02-02T07:05:26.898Z,957.4
2019-02-02T07:06:28.374Z,957.5
2019-02-02T07:07:29.682Z,957.5
2019-02-02T07:08:30.944Z,957.4
2019-02-02T07:09:48.892Z,957.5
2019-02-02T07:10:50.297Z,957.5
2019-02-02T07:11:51.584Z,957.4
2019-02-02T07:12:52.850Z,957.4
2019-02-02T07:13:54.100Z,957.3
2019-02-02T07:14:55.354Z,957.4
2019-02-02T07:15:56.648Z,957.3
2019-02-02T07:16:57.924Z,957.3
2019-02-02T07:17:59.205Z,957.3
2019-02-02T07:19:01.109Z,957.3
2019-02-02T07:20:02.370Z,957.4
2019-02-02T07:21:03.675Z,957.5
2019-02-02T07:22:04.943Z,957.5
2019-02-02T07:23:08.298Z,957.4
2019-02-02T07:24:09.572Z,957.4
2019-02-02T07:25:10.817Z,957.3
2019-02-02T07:26:12.215Z,957.3
2019-02-02T07:27:13.497Z,957.3
2019-02-02T07:28:15.287Z,957.2
2019-02-02T07:29:16.542Z,957.3
2019-02-02T07:30:29.755Z,957.3
2019-02-02T07:31:31.283Z,957.4
2019-02-02T07:32:32.566Z,957.4
2019-02-02T07:33:33.837Z,957.4
2019-02-02T07:34:35.094Z,957.5
2019-02-02T07:35:36.346Z,957.5
2019-02-02T07:36:42.601Z,957.4
2019-02-02T07:37:43.844Z,957.6
2019-02-02T07:38:45.136Z,957.6
2019-02-02T07:39:46.413Z,957.8
2019-02-02T07:40:47.725Z,957.7
2019-02-02T07:41:49.018Z,957.6
2019-02-02T07:42:50.413Z,957.8
2019-02-02T07:43:51.654Z,957.8
2019-02-02T07:44:52.932Z,957.8
2019-02-02T07:45:54.325Z,957.8
2019-02-02T07:46:55.614Z,957.8
2019-02-02T07:47:57.177Z,957.8
2019-02-02T07:49:01.123Z,957.9
2019-02-02T07:50:02.829Z,957.9
2019-02-02T07:51:04.096Z,957.8
2019-02-02T07:52:05.381Z,957.8
2019-02-02T07:53:06.639Z,957.8
2019-02-02T07:54:07.895Z,957.8
2019-02-02T07:55:12.874Z,957.8
2019-02-02T07:56:14.140Z,957.8
2019-02-02T07:57:16.039Z,957.9
2019-02-02T07:58:17.333Z,957.9
2019-02-02T07:59:18.598Z,957.8
2019-02-02T08:00:20.320Z,957.8
2019-02-02T08:01:21.570Z,957.9
2019-02-02T08:02:22.827Z,958
2019-02-02T08:03:24.093Z,958
2019-02-02T08:04:25.355Z,958.1
2019-02-02T08:05:26.737Z,958.1
2019-02-02T08:06:28.011Z,958.2
2019-02-02T08:07:29.305Z,958.3
2019-02-02T08:08:30.547Z,958.5
2019-02-02T08:09:31.849Z,958.5
2019-02-02T08:10:33.176Z,958.3
2019-02-02T08:11:34.485Z,958.3
2019-02-02T08:12:35.795Z,958.2
2019-02-02T08:13:37.051Z,958.5
2019-02-02T08:14:38.297Z,958.4
2019-02-02T08:15:39.578Z,958.5
2019-02-02T08:16:40.855Z,958.5
2019-02-02T08:17:42.147Z,958.5
2019-02-02T08:18:43.546Z,958.5
2019-02-02T08:19:44.799Z,958.9
2019-02-02T08:20:46.061Z,959
2019-02-02T08:21:47.293Z,959
2019-02-02T08:22:48.577Z,958.9
2019-02-02T08:23:49.849Z,958.9
2019-02-02T08:24:51.243Z,959
2019-02-02T08:25:52.491Z,958.9
2019-02-02T08:26:53.740Z,958.9
2019-02-02T08:27:55.043Z,958.8
2019-02-02T08:28:56.311Z,958.8
2019-02-02T08:29:57.593Z,958.8
2019-02-02T08:30:58.945Z,958.9
2019-02-02T08:32:00.297Z,958.9
2019-02-02T08:33:01.608Z,958.8
2019-02-02T08:34:02.871Z,958.8
2019-02-02T08:35:04.165Z,958.8
2019-02-02T08:36:05.428Z,958.8
2019-02-02T08:37:06.725Z,958.9
2019-02-02T08:38:11.107Z,958.8
2019-02-02T08:39:12.357Z,958.7
2019-02-02T08:40:13.942Z,958.8
2019-02-02T08:41:15.230Z,958.7
2019-02-02T08:42:16.553Z,958.7
2019-02-02T08:43:21.029Z,958.8
2019-02-02T08:44:22.329Z,958.7
2019-02-02T08:45:23.584Z,958.7
2019-02-02T08:46:24.846Z,958.7
2019-02-02T08:47:29.099Z,958.7
2019-02-02T08:48:30.401Z,958.7
2019-02-02T08:49:31.708Z,958.7
2019-02-02T08:50:35.958Z,958.6
2019-02-02T08:51:37.244Z,958.6
2019-02-02T08:52:40.082Z,958.6
2019-02-02T08:53:41.762Z,958.6
2019-02-02T08:54:43.311Z,958.6
2019-02-02T08:55:44.665Z,958.7
2019-02-02T08:56:46.224Z,958.6
2019-02-02T08:57:48.810Z,958.7
2019-02-02T08:58:50.376Z,958.8
2019-02-02T08:59:51.662Z,958.8
2019-02-02T09:01:04.509Z,958.9
2019-02-02T09:02:08.318Z,958.9
2019-02-02T09:03:09.592Z,958.9
2019-02-02T09:04:10.884Z,958.8
2019-02-02T09:05:15.220Z,958.9
2019-02-02T09:06:16.544Z,958.7
2019-02-02T09:07:20.792Z,958.9
2019-02-02T09:08:22.102Z,958.9
2019-02-02T09:09:26.302Z,959
2019-02-02T09:10:28.626Z,959
2019-02-02T09:11:29.898Z,959
2019-02-02T09:12:31.181Z,959
2019-02-02T09:13:32.764Z,959
2019-02-02T09:14:35.461Z,958.9
2019-02-02T09:15:36.742Z,958.9
2019-02-02T09:16:38.346Z,958.7
2019-02-02T09:17:48.125Z,958.8
2019-02-02T09:18:52.084Z,958.9
2019-02-02T09:19:53.615Z,959
2019-02-02T09:20:54.841Z,959
2019-02-02T09:21:56.302Z,959.1
2019-02-02T09:23:06.935Z,958.9
2019-02-02T09:24:08.298Z,958.9
2019-02-02T09:25:09.876Z,958.8
2019-02-02T09:26:11.162Z,958.8
2019-02-02T09:27:15.596Z,958.9
2019-02-02T09:28:19.526Z,959
2019-02-02T09:29:20.911Z,959
2019-02-02T09:30:24.841Z,959
2019-02-02T09:31:26.314Z,959.1
2019-02-02T09:32:27.579Z,959.1
2019-02-02T09:33:28.881Z,959.1
2019-02-02T09:34:30.771Z,959
2019-02-02T09:35:35.330Z,959
2019-02-02T09:36:37.871Z,959
2019-02-02T09:37:44.455Z,959
2019-02-02T09:38:49.278Z,959
2019-02-02T09:39:50.552Z,959
2019-02-02T09:40:51.919Z,959
2019-02-02T09:41:53.202Z,959
2019-02-02T09:42:54.469Z,959
2019-02-02T09:43:56.211Z,958.9
2019-02-02T09:44:57.791Z,958.9
2019-02-02T09:45:59.134Z,959
2019-02-02T09:47:02.217Z,959.1
2019-02-02T09:48:03.498Z,959
2019-02-02T09:49:04.994Z,959.1
2019-02-02T09:50:06.305Z,959.1
2019-02-02T09:51:07.866Z,959
2019-02-02T09:52:12.165Z,959.1
2019-02-02T09:53:13.436Z,959.2
2019-02-02T09:54:25.940Z,959.3
2019-02-02T09:55:27.619Z,959.3
2019-02-02T09:56:28.945Z,959.3
2019-02-02T09:57:30.218Z,959.4
2019-02-02T09:58:31.484Z,959.5
2019-02-02T09:59:32.757Z,959.3
2019-02-02T10:00:34.249Z,959.5
2019-02-02T10:01:36.831Z,959.4
2019-02-02T10:02:38.088Z,959.3
2019-02-02T10:03:39.738Z,959.4
2019-02-02T10:04:41.023Z,959.4
2019-02-02T10:05:46.609Z,959.5
2019-02-02T10:06:48.222Z,959.5
2019-02-02T10:07:49.495Z,959.6
2019-02-02T10:08:52.947Z,959.6
2019-02-02T10:09:56.689Z,959.6
2019-02-02T10:10:57.981Z,959.6
2019-02-02T10:11:59.787Z,959.7
2019-02-02T10:13:01.068Z,959.5
2019-02-02T10:14:02.323Z,959.6
2019-02-02T10:15:03.686Z,959.8
2019-02-02T10:16:04.965Z,959.7
2019-02-02T10:17:06.268Z,690.9
2019-02-02T10:18:09.111Z,690.9
2019-02-02T10:19:10.399Z,690.9
2019-02-02T10:20:11.655Z,690.9
2019-02-02T10:21:12.934Z,690.9
2019-02-02T10:22:14.427Z,690.9
2019-02-02T10:23:15.693Z,690.9
2019-02-02T10:24:16.952Z,690.9
2019-02-02T10:25:18.245Z,690.9
2019-02-02T10:26:19.533Z,690.9
2019-02-02T10:27:20.845Z,690.9
2019-02-02T10:28:24.331Z,690.9
2019-02-02T10:29:25.603Z,690.9
2019-02-02T10:30:30.918Z,690.9
2019-02-02T10:31:40.259Z,690.9
2019-02-02T10:32:41.644Z,690.9
2019-02-02T10:33:43.177Z,690.9
2019-02-02T10:34:44.827Z,690.9
2019-02-02T10:35:49.040Z,690.9
2019-02-02T10:36:50.309Z,690.9
2019-02-02T10:37:51.656Z,690.9
2019-02-02T10:38:55.584Z,690.9
2019-02-02T10:39:56.833Z,690.9
2019-02-02T10:41:00.108Z,690.9
2019-02-02T10:42:01.373Z,690.9
2019-02-02T10:43:04.874Z,690.9
2019-02-02T10:44:09.188Z,690.9
2019-02-02T10:45:10.484Z,690.9
2019-02-02T10:46:11.748Z,690.9
2019-02-02T10:47:13.014Z,690.9
2019-02-02T10:48:14.327Z,690.9
2019-02-02T10:49:16.874Z,690.9
2019-02-02T10:50:18.181Z,690.9
2019-02-02T10:51:19.479Z,690.9
2019-02-02T10:52:20.983Z,690.9
2019-02-02T10:53:22.292Z,690.9
2019-02-02T10:54:23.577Z,690.9
2019-02-02T10:55:29.919Z,690.9
2019-02-02T10:56:31.212Z,690.9
2019-02-02T10:57:32.469Z,690.9
2019-02-02T10:58:33.791Z,690.9
2019-02-02T10:59:35.071Z,690.9
2019-02-02T11:00:36.385Z,690.9
2019-02-02T11:01:37.689Z,690.9
2019-02-02T11:02:41.532Z,690.9
2019-02-02T11:03:42.940Z,690.9
2019-02-02T11:04:44.446Z,690.9
2019-02-02T11:05:45.868Z,690.9
2019-02-02T11:06:47.713Z,690.9
2019-02-02T11:07:49.529Z,690.9
2019-02-02T11:08:50.969Z,690.9
2019-02-02T11:09:52.377Z,690.9
2019-02-02T11:10:53.790Z,690.9
2019-02-02T11:11:55.108Z,690.9
2019-02-02T11:12:56.595Z,690.9
2019-02-02T11:13:58.073Z,690.9
2019-02-02T11:15:02.376Z,690.9
2019-02-02T11:16:03.838Z,690.9
2019-02-02T11:17:05.520Z,690.9
2019-02-02T11:18:07.207Z,690.9
2019-02-02T11:19:08.723Z,690.9
2019-02-02T11:20:10.580Z,690.9
2019-02-02T11:21:12.068Z,690.9
2019-02-02T11:22:13.608Z,690.9
2019-02-02T11:23:15.501Z,690.9
2019-02-02T11:24:20.020Z,690.9
2019-02-02T11:25:21.483Z,690.9
2019-02-02T11:26:25.119Z,690.9
2019-02-02T11:27:26.595Z,690.9
2019-02-02T11:28:30.426Z,690.9
2019-02-02T11:29:31.804Z,690.9
2019-02-02T11:30:45.410Z,690.9
2019-02-02T11:31:47.168Z,690.9
2019-02-02T11:32:48.679Z,690.9
2019-02-02T11:33:50.318Z,690.9
2019-02-02T11:34:51.614Z,690.9
2019-02-02T11:35:57.252Z,690.9
2019-02-02T11:37:00.934Z,690.9
2019-02-02T11:38:05.292Z,690.9
2019-02-02T11:39:11.132Z,690.9
2019-02-02T11:40:12.500Z,690.9
2019-02-02T11:41:13.996Z,690.9
2019-02-02T11:42:15.317Z,690.9
2019-02-02T11:43:16.844Z,690.9
2019-02-02T11:44:20.738Z,690.9
2019-02-02T11:45:22.022Z,690.9
2019-02-02T11:46:27.598Z,690.9
2019-02-02T11:47:28.884Z,690.9
2019-02-02T11:48:30.302Z,690.9
2019-02-02T11:49:31.552Z,690.9
2019-02-02T11:50:32.884Z,690.9
2019-02-02T11:51:34.170Z,690.9
2019-02-02T11:52:35.717Z,690.9
2019-02-02T11:53:38.330Z,690.9
2019-02-02T11:54:39.611Z,690.9
2019-02-02T11:55:41.152Z,690.9
2019-02-02T11:56:42.647Z,690.9
2019-02-02T11:57:45.881Z,690.9
2019-02-02T11:58:47.174Z,690.9
2019-02-02T11:59:48.469Z,690.9
2019-02-02T12:00:49.846Z,690.9
2019-02-02T12:01:51.302Z,690.9
2019-02-02T12:02:55.373Z,690.9
2019-02-02T12:03:56.627Z,690.9
2019-02-02T12:05:00.538Z,690.9
2019-02-02T12:06:01.879Z,690.9
2019-02-02T12:07:03.177Z,690.9
2019-02-02T12:08:04.580Z,690.9
2019-02-02T12:09:06.225Z,690.9
2019-02-02T12:10:07.513Z,690.9
2019-02-02T12:11:10.425Z,690.9
2019-02-02T12:12:11.727Z,690.9
2019-02-02T12:13:22.178Z,690.9
2019-02-02T12:14:23.479Z,690.9
2019-02-02T12:15:24.796Z,690.9
2019-02-02T12:16:26.259Z,690.9
2019-02-02T12:17:27.558Z,690.9
2019-02-02T12:18:29.060Z,690.9
2019-02-02T12:19:35.518Z,690.9
2019-02-02T12:20:37.118Z,690.9
2019-02-02T12:21:38.652Z,690.9
2019-02-02T12:22:40.160Z,690.9
2019-02-02T12:23:41.491Z,690.9
2019-02-02T12:24:43.033Z,690.9
2019-02-02T12:25:45.719Z,690.9
2019-02-02T12:26:49.574Z,690.9
2019-02-02T12:27:51.198Z,690.9
2019-02-02T12:28:52.657Z,690.9
2019-02-02T12:29:54.186Z,690.9
2019-02-02T12:30:55.423Z,690.9
2019-02-02T12:31:56.741Z,690.9
2019-02-02T12:33:02.868Z,690.9
2019-02-02T12:34:07.325Z,690.9
2019-02-02T12:35:08.650Z,690.9
2019-02-02T12:36:12.177Z,690.9
2019-02-02T12:37:16.371Z,690.9
2019-02-02T12:38:25.161Z,690.9
2019-02-02T12:39:29.309Z,690.9
2019-02-02T12:40:31.162Z,690.9
2019-02-02T12:41:40.356Z,690.9
2019-02-02T12:42:49.075Z,690.9
2019-02-02T12:43:50.649Z,690.9
2019-02-02T12:44:52.118Z,690.9
2019-02-02T12:45:57.662Z,690.9
2019-02-02T12:47:03.299Z,690.9
2019-02-02T12:48:06.781Z,690.9
2019-02-02T12:49:08.289Z,690.9
2019-02-02T12:50:10.025Z,690.9
2019-02-02T12:51:11.307Z,690.9
2019-02-02T12:52:12.613Z,690.9
2019-02-02T12:53:18.817Z,690.9
2019-02-02T12:54:24.330Z,690.9
2019-02-02T12:55:26.823Z,690.9
2019-02-02T12:56:31.093Z,690.9
2019-02-02T12:57:32.603Z,690.9
2019-02-02T12:58:35.916Z,690.9
2019-02-02T12:59:38.854Z,690.9
2019-02-02T13:00:40.204Z,690.9
2019-02-02T13:01:41.484Z,690.9
2019-02-02T13:02:42.792Z,690.9
2019-02-02T13:03:44.309Z,690.9
2019-02-02T13:04:45.811Z,690.9
2019-02-02T13:05:47.082Z,690.9
2019-02-02T13:06:48.555Z,690.9
2019-02-02T13:07:49.797Z,690.9
2019-02-02T13:08:53.378Z,690.9
2019-02-02T13:09:54.637Z,690.9
2019-02-02T13:11:02.213Z,690.9
2019-02-02T13:12:03.604Z,690.9
2019-02-02T13:13:07.147Z,690.9
2019-02-02T13:14:08.801Z,690.9
2019-02-02T13:15:10.069Z,690.9
2019-02-02T13:16:11.627Z,690.9
2019-02-02T13:17:13.243Z,690.9
2019-02-02T13:18:15.297Z,690.9
2019-02-02T13:19:16.614Z,690.9
2019-02-02T13:20:17.894Z,690.9
2019-02-02T13:21:19.280Z,690.9